Time;durP1;ratioP1;P1;durP2;ratioP2;P2;SDS_P1;SDS_P2;PMS_P1;PMS_P2;Temp;Humidity;BMP_temperature;BMP_pressure;BME280_temperature;BME280_humidity;BME280_pressure;Samples;Min_cycle;Max_cycle;Signal;HPM_P1;HPM_P2
2023/05/14 00:02:00;;;;;;;6.82;6.03;;;12.40;90.50;;;;;;5092110;28;20417;-64
2023/05/14 00:04:27;;;;;;;7.90;7.10;;;12.40;91.40;;;;;;5091856;28;20416;-65
2023/05/14 00:06:54;;;;;;;6.70;6.10;;;12.40;92.20;;;;;;5092542;28;20409;-66
2023/05/14 00:09:20;;;;;;;7.70;6.30;;;12.40;93.10;;;;;;5091776;28;20413;-67
2023/05/14 00:11:47;;;;;;;7.03;6.33;;;12.40;93.60;;;;;;5091519;28;20445;-66
2023/05/14 00:14:14;;;;;;;7.00;6.30;;;12.40;94.10;;;;;;5091437;28;20418;-65
2023/05/14 00:16:42;;;;;;;6.90;6.20;;;12.30;94.80;;;;;;5091759;28;20432;-66
2023/05/14 00:19:09;;;;;;;9.18;6.70;;;12.30;95.10;;;;;;5091493;28;20431;-65
2023/05/14 00:21:36;;;;;;;7.20;6.50;;;12.30;95.50;;;;;;5091217;28;20414;-65
2023/05/14 00:24:03;;;;;;;7.65;6.93;;;12.30;96.00;;;;;;5091596;28;20775;-65
2023/05/14 00:26:30;;;;;;;9.20;7.07;;;12.30;96.50;;;;;;5091960;28;20476;-65
2023/05/14 00:28:57;;;;;;;7.35;6.72;;;12.20;96.90;;;;;;5095840;28;20417;-66
2023/05/14 00:31:24;;;;;;;7.47;6.78;;;12.20;97.50;;;;;;5095879;28;20418;-66
2023/05/14 00:33:52;;;;;;;7.30;6.60;;;12.10;97.80;;;;;;5095667;28;20410;-65
2023/05/14 00:36:18;;;;;;;7.77;6.50;;;12.00;98.30;;;;;;5095778;28;20425;-65
2023/05/14 00:38:45;;;;;;;7.85;7.05;;;12.00;98.80;;;;;;5095702;28;20409;-65
2023/05/14 00:41:12;;;;;;;7.75;7.05;;;12.00;99.20;;;;;;5095546;28;20412;-65
2023/05/14 00:43:39;;;;;;;7.97;6.80;;;11.90;99.70;;;;;;5095073;28;20884;-65
2023/05/14 00:46:06;;;;;;;7.55;6.85;;;11.90;99.90;;;;;;5095654;28;20414;-65
2023/05/14 00:48:33;;;;;;;7.63;6.90;;;11.80;99.90;;;;;;5095509;28;20413;-64
2023/05/14 00:51:01;;;;;;;7.93;7.22;;;11.80;99.90;;;;;;5096080;28;20410;-66
2023/05/14 00:53:28;;;;;;;7.55;6.85;;;11.70;99.90;;;;;;5094980;28;20413;-65
2023/05/14 00:55:55;;;;;;;8.38;7.50;;;11.70;99.90;;;;;;5094830;28;20891;-67
2023/05/14 00:58:23;;;;;;;8.15;7.32;;;11.70;99.90;;;;;;5095111;28;20421;-65
2023/05/14 01:00:50;;;;;;;7.80;7.00;;;11.70;99.90;;;;;;5095070;28;20409;-65
2023/05/14 01:03:17;;;;;;;9.00;8.05;;;11.60;99.90;;;;;;5095484;28;20492;-65
2023/05/14 01:05:53;;;;;;;9.00;7.53;;;11.60;99.90;;;;;;5094949;28;20903;-65
2023/05/14 01:08:40;;;;;;;8.70;7.30;;;11.60;99.90;;;;;;5095548;28;20406;-66
2023/05/14 01:11:13;;;;;;;8.50;7.03;;;11.60;99.90;;;;;;5095045;28;20508;-66
2023/05/14 01:13:59;;;;;;;9.80;7.60;;;11.50;99.90;;;;;;5094566;28;20410;-66
2023/05/14 01:16:28;;;;;;;9.40;8.00;;;11.50;99.90;;;;;;5094936;28;20421;-66
2023/05/14 01:18:56;;;;;;;9.30;8.30;;;11.50;99.90;;;;;;5094602;28;20414;-66
2023/05/14 01:21:35;;;;;;;8.90;8.00;;;11.50;99.90;;;;;;5094941;28;20420;-66
2023/05/14 01:24:02;;;;;;;9.57;7.95;;;11.40;99.90;;;;;;5094707;28;20418;-66
2023/05/14 01:26:30;;;;;;;8.88;8.07;;;11.40;99.90;;;;;;5094521;28;20905;-66
2023/05/14 01:29:01;;;;;;;9.48;8.38;;;11.40;99.90;;;;;;5094419;28;20412;-66
2023/05/14 01:31:31;;;;;;;9.50;8.30;;;11.40;99.90;;;;;;5094618;28;20462;-67
2023/05/14 01:33:59;;;;;;;8.23;7.53;;;11.30;99.90;;;;;;5094364;28;20402;-66
2023/05/14 01:36:27;;;;;;;10.10;8.15;;;11.30;99.90;;;;;;5094127;28;20937;-65
2023/05/14 01:38:56;;;;;;;8.98;8.10;;;11.30;99.90;;;;;;5093518;28;20416;-67
2023/05/14 01:41:25;;;;;;;9.10;8.20;;;11.30;99.90;;;;;;5094373;28;20414;-67
2023/05/14 01:43:52;;;;;;;9.38;8.38;;;11.30;99.90;;;;;;5094158;28;20749;-67
2023/05/14 01:46:18;;;;;;;8.93;8.13;;;11.30;99.90;;;;;;5094049;28;20416;-67
2023/05/14 01:48:45;;;;;;;9.80;8.80;;;11.20;99.90;;;;;;5094496;28;20405;-66
2023/05/14 01:51:13;;;;;;;9.73;8.52;;;11.20;99.90;;;;;;5094118;28;20413;-66
2023/05/14 01:53:40;;;;;;;9.55;8.20;;;11.10;99.90;;;;;;5094433;28;20501;-66
2023/05/14 01:56:08;;;;;;;8.80;8.00;;;11.10;99.90;;;;;;5094336;28;20406;-66
2023/05/14 01:58:35;;;;;;;8.55;7.70;;;11.10;99.90;;;;;;5094250;28;20424;-65
2023/05/14 02:01:02;;;;;;;9.50;8.50;;;11.10;99.90;;;;;;5094139;28;20418;-65
2023/05/14 02:03:29;;;;;;;9.50;8.50;;;11.10;99.90;;;;;;5094016;28;20820;-65
2023/05/14 02:05:55;;;;;;;9.15;8.25;;;11.10;99.90;;;;;;5093972;28;20798;-65
2023/05/14 02:08:22;;;;;;;8.60;7.70;;;11.10;99.90;;;;;;5094034;28;20406;-64
2023/05/14 02:10:49;;;;;;;8.98;8.07;;;11.00;99.90;;;;;;5093740;28;20428;-65
2023/05/14 02:13:17;;;;;;;9.00;8.00;;;11.00;99.90;;;;;;5093569;28;20467;-65
2023/05/14 02:15:44;;;;;;;9.20;8.30;;;11.00;99.90;;;;;;5093508;28;20410;-65
2023/05/14 02:18:11;;;;;;;8.95;8.15;;;11.00;99.90;;;;;;5093678;28;20523;-64
2023/05/14 02:20:38;;;;;;;9.77;8.00;;;11.00;99.90;;;;;;5094150;28;20409;-65
2023/05/14 02:23:04;;;;;;;11.02;8.10;;;11.00;99.90;;;;;;5093851;28;20412;-65
2023/05/14 02:25:31;;;;;;;10.20;8.25;;;11.00;99.90;;;;;;5093189;28;20888;-66
2023/05/14 02:27:58;;;;;;;9.38;8.45;;;11.00;99.90;;;;;;5093441;28;20780;-65
2023/05/14 02:30:26;;;;;;;9.10;8.20;;;11.00;99.90;;;;;;5093033;28;20896;-65
2023/05/14 02:32:53;;;;;;;9.05;8.15;;;10.90;99.90;;;;;;5092879;28;20772;-67
2023/05/14 02:35:20;;;;;;;9.45;8.50;;;10.90;99.90;;;;;;5093181;28;20437;-66
2023/05/14 02:37:46;;;;;;;10.48;8.20;;;10.90;99.90;;;;;;5092931;28;20548;-66
2023/05/14 02:40:13;;;;;;;9.60;8.70;;;10.90;99.90;;;;;;5092882;28;20911;-66
2023/05/14 02:42:40;;;;;;;9.20;8.33;;;10.90;99.90;;;;;;5092886;28;20454;-66
2023/05/14 02:45:07;;;;;;;9.50;8.60;;;10.80;99.90;;;;;;5092408;28;20410;-66
2023/05/14 02:47:35;;;;;;;9.83;8.13;;;10.80;99.90;;;;;;5093013;28;20512;-66
2023/05/14 02:50:03;;;;;;;9.80;8.80;;;10.80;99.90;;;;;;5092303;28;20410;-66
2023/05/14 02:52:30;;;;;;;10.00;9.00;;;10.70;99.90;;;;;;5092817;28;20421;-66
2023/05/14 02:54:57;;;;;;;10.65;9.50;;;10.70;99.90;;;;;;5092932;28;20410;-66
2023/05/14 02:57:24;;;;;;;9.60;8.70;;;10.60;99.90;;;;;;5092899;28;20422;-65
2023/05/14 02:59:50;;;;;;;10.00;9.10;;;10.60;99.90;;;;;;5092644;28;20406;-65
2023/05/14 03:02:17;;;;;;;10.30;8.95;;;10.60;99.90;;;;;;5092373;28;20406;-65
2023/05/14 03:04:45;;;;;;;10.20;9.30;;;10.50;99.90;;;;;;5092548;28;20775;-65
2023/05/14 03:07:12;;;;;;;10.45;9.00;;;10.50;99.90;;;;;;5092543;28;20413;-65
2023/05/14 03:09:39;;;;;;;9.77;8.60;;;10.50;99.90;;;;;;5092615;28;20444;-65
2023/05/14 03:12:07;;;;;;;10.48;9.38;;;10.40;99.90;;;;;;5092633;28;20515;-65
2023/05/14 03:14:34;;;;;;;11.05;9.30;;;10.40;99.90;;;;;;5092221;28;20425;-65
2023/05/14 03:17:01;;;;;;;9.80;8.80;;;10.30;99.90;;;;;;5092289;28;20875;-65
2023/05/14 03:19:27;;;;;;;9.80;8.80;;;10.40;99.90;;;;;;5092451;28;20416;-65
2023/05/14 03:21:56;;;;;;;10.15;8.70;;;10.30;99.90;;;;;;5092623;28;20405;-64
2023/05/14 03:24:22;;;;;;;9.23;8.40;;;10.30;99.90;;;;;;5092410;28;20441;-65
2023/05/14 03:26:49;;;;;;;10.07;9.07;;;10.30;99.90;;;;;;5092409;28;20420;-65
2023/05/14 03:29:16;;;;;;;9.60;8.60;;;10.30;99.90;;;;;;5091953;28;20903;-65
2023/05/14 03:31:43;;;;;;;9.20;8.38;;;10.30;99.90;;;;;;5092387;28;20420;-65
2023/05/14 03:34:10;;;;;;;9.77;8.88;;;10.30;99.90;;;;;;5092117;28;20406;-65
2023/05/14 03:36:38;;;;;;;9.43;8.60;;;10.30;99.90;;;;;;5091917;28;20417;-65
2023/05/14 03:39:08;;;;;;;9.80;8.73;;;10.20;99.90;;;;;;5091770;28;20847;-65
2023/05/14 03:41:36;;;;;;;10.05;8.32;;;10.20;99.90;;;;;;5091719;28;20414;-65
2023/05/14 03:44:05;;;;;;;9.55;8.55;;;10.20;99.90;;;;;;5091728;28;20496;-63
2023/05/14 03:46:31;;;;;;;9.50;8.60;;;10.30;99.90;;;;;;5092068;28;20463;-65
2023/05/14 03:48:58;;;;;;;8.98;8.18;;;10.30;99.90;;;;;;5091882;28;20409;-65
2023/05/14 03:51:25;;;;;;;9.00;8.10;;;10.30;99.90;;;;;;5091382;28;20760;-65
2023/05/14 03:53:52;;;;;;;7.53;6.83;;;10.30;99.90;;;;;;5093315;28;20590;-65
2023/05/14 03:56:21;;;;;;;8.80;7.90;;;10.30;99.90;;;;;;5091654;28;20417;-64
2023/05/14 03:58:48;;;;;;;9.17;8.27;;;10.30;99.90;;;;;;5091334;28;20487;-65
2023/05/14 04:01:14;;;;;;;8.60;7.80;;;10.30;99.90;;;;;;5091003;28;20410;-64
2023/05/14 04:03:41;;;;;;;9.13;8.23;;;10.30;99.90;;;;;;5091449;28;20421;-66
2023/05/14 04:06:08;;;;;;;8.70;7.90;;;10.40;99.90;;;;;;5091734;28;20535;-66
2023/05/14 04:11:42;;;;;;;7.78;7.07;;;10.90;99.90;;;;;;5109460;27;20869;-66
2023/05/14 04:14:09;;;;;;;7.35;6.72;;;11.20;99.90;;;;;;5109107;28;20413;-66
2023/05/14 04:16:36;;;;;;;7.80;7.00;;;11.60;99.90;;;;;;5109511;28;20409;-65
2023/05/14 04:19:03;;;;;;;7.57;6.85;;;11.90;99.90;;;;;;5109372;28;20413;-64
2023/05/14 04:21:30;;;;;;;8.55;6.57;;;12.30;99.90;;;;;;5109454;28;20413;-65
2023/05/14 04:23:57;;;;;;;7.07;6.38;;;12.50;99.90;;;;;;5109273;28;20412;-66
2023/05/14 04:26:24;;;;;;;7.60;6.90;;;12.80;99.90;;;;;;5109325;28;20462;-65
2023/05/14 04:28:52;;;;;;;7.40;6.60;;;13.10;99.90;;;;;;5109434;28;20416;-66
2023/05/14 04:31:18;;;;;;;7.25;6.55;;;13.30;99.90;;;;;;5109085;28;20421;-66
2023/05/14 04:33:45;;;;;;;7.30;6.60;;;13.50;99.90;;;;;;5108711;28;20409;-66
2023/05/14 04:36:12;;;;;;;6.40;5.70;;;13.70;99.90;;;;;;5108897;28;20857;-66
2023/05/14 04:38:39;;;;;;;6.45;5.85;;;14.00;99.90;;;;;;5108641;28;20413;-66
2023/05/14 04:41:06;;;;;;;7.30;6.35;;;14.20;99.90;;;;;;5108461;28;20921;-66
2023/05/14 04:43:33;;;;;;;6.55;5.95;;;14.40;98.90;;;;;;5122605;22;22057;-61
2023/05/14 04:46:01;;;;;;;7.28;6.07;;;14.50;98.00;;;;;;5048777;28;20915;-62
2023/05/14 04:48:28;;;;;;;6.30;5.70;;;14.60;97.30;;;;;;5048758;28;20422;-61
2023/05/14 04:50:55;;;;;;;6.20;5.60;;;14.80;96.20;;;;;;5048973;28;20430;-61
2023/05/14 04:53:22;;;;;;;6.88;5.80;;;15.00;95.30;;;;;;5049309;28;20418;-61
2023/05/14 04:55:49;;;;;;;6.10;5.50;;;15.10;93.90;;;;;;5049038;28;20897;-64
2023/05/14 04:58:15;;;;;;;6.90;5.72;;;15.20;92.90;;;;;;5048793;28;20429;-63
2023/05/14 05:00:42;;;;;;;6.03;5.43;;;15.30;92.10;;;;;;5048788;28;20908;-64
2023/05/14 05:03:10;;;;;;;6.20;5.70;;;15.40;91.20;;;;;;5049049;28;20414;-63
2023/05/14 05:05:37;;;;;;;6.40;5.80;;;15.50;90.50;;;;;;5048441;28;20505;-63
2023/05/14 05:08:04;;;;;;;7.30;5.30;;;15.60;89.50;;;;;;5048456;28;20414;-62
2023/05/14 05:10:31;;;;;;;6.40;5.80;;;15.70;88.50;;;;;;5048222;28;20442;-61
2023/05/14 05:12:58;;;;;;;6.00;5.50;;;15.80;87.20;;;;;;5048120;28;20418;-63
2023/05/14 05:15:24;;;;;;;6.43;5.60;;;15.90;86.00;;;;;;5047891;28;20410;-63
2023/05/14 05:17:51;;;;;;;7.28;6.20;;;16.00;85.20;;;;;;5048471;28;20425;-61
2023/05/14 05:20:19;;;;;;;5.57;5.03;;;16.10;83.60;;;;;;5048738;28;20418;-62
2023/05/14 05:22:46;;;;;;;6.75;6.15;;;16.20;82.40;;;;;;5036498;28;20881;-63
2023/05/14 05:25:13;;;;;;;6.95;5.45;;;16.20;81.50;;;;;;5035341;28;20422;-62
2023/05/14 05:27:40;;;;;;;6.18;5.50;;;16.10;81.80;;;;;;5035580;28;20423;-63
2023/05/14 05:30:08;;;;;;;7.30;5.10;;;16.10;81.40;;;;;;5040049;28;20431;-63
2023/05/14 05:32:35;;;;;;;5.80;5.30;;;16.00;81.40;;;;;;5035349;28;20422;-64
2023/05/14 05:35:02;;;;;;;5.97;5.40;;;15.90;81.30;;;;;;5034640;28;20510;-62
2023/05/14 05:37:31;;;;;;;6.13;5.53;;;15.90;81.90;;;;;;5035263;28;20431;-63
2023/05/14 05:39:58;;;;;;;6.60;5.90;;;15.90;82.20;;;;;;5035571;28;20443;-62
2023/05/14 05:42:25;;;;;;;6.55;5.75;;;16.00;81.60;;;;;;5036335;28;20419;-64
2023/05/14 05:44:52;;;;;;;6.50;5.90;;;16.20;80.50;;;;;;5037466;28;20415;-63
2023/05/14 05:47:19;;;;;;;5.80;5.20;;;16.20;79.20;;;;;;5038715;28;20477;-63
2023/05/14 05:49:46;;;;;;;6.50;5.80;;;16.20;78.70;;;;;;5037674;28;20426;-63
2023/05/14 05:52:13;;;;;;;5.38;4.82;;;16.20;78.30;;;;;;5038173;28;20423;-62
2023/05/14 05:54:41;;;;;;;5.72;5.13;;;16.30;78.40;;;;;;5038561;28;20415;-62
2023/05/14 05:57:10;;;;;;;5.90;5.30;;;16.40;78.00;;;;;;5038112;28;20419;-63
2023/05/14 05:59:37;;;;;;;5.90;5.40;;;16.40;77.10;;;;;;5041364;28;20521;-62
2023/05/14 06:02:04;;;;;;;6.63;5.90;;;16.50;76.90;;;;;;5043386;28;20411;-62
2023/05/14 06:04:31;;;;;;;5.50;5.00;;;16.60;76.10;;;;;;5041458;28;20454;-63
2023/05/14 06:06:57;;;;;;;6.85;6.13;;;16.60;75.50;;;;;;5038317;28;20423;-64
2023/05/14 06:09:24;;;;;;;5.80;5.30;;;16.60;74.30;;;;;;5037504;28;20411;-62
2023/05/14 06:11:52;;;;;;;5.60;5.10;;;16.60;73.90;;;;;;5041825;28;20427;-63
2023/05/14 06:14:19;;;;;;;5.97;5.38;;;16.50;73.70;;;;;;5043422;28;20426;-63
2023/05/14 06:16:46;;;;;;;7.28;5.72;;;16.40;74.60;;;;;;5042041;28;20884;-62
2023/05/14 06:19:13;;;;;;;6.80;6.10;;;16.40;75.40;;;;;;5038594;28;20423;-63
2023/05/14 06:21:39;;;;;;;6.00;5.40;;;16.40;76.00;;;;;;5038112;28;20940;-63
2023/05/14 06:24:07;;;;;;;6.55;5.70;;;16.40;76.30;;;;;;5037025;28;20414;-61
2023/05/14 06:26:34;;;;;;;6.20;5.70;;;16.40;75.30;;;;;;5035057;28;20786;-62
2023/05/14 06:29:02;;;;;;;6.20;5.60;;;16.40;74.70;;;;;;5035016;28;20881;-63
2023/05/14 06:31:29;;;;;;;6.72;5.85;;;16.40;74.40;;;;;;5033883;28;20434;-63
2023/05/14 06:33:55;;;;;;;6.20;5.70;;;16.40;74.20;;;;;;5033353;28;20419;-61
2023/05/14 06:36:22;;;;;;;6.57;5.93;;;16.30;74.10;;;;;;5033424;28;20415;-63
2023/05/14 06:38:49;;;;;;;6.35;5.75;;;16.30;73.90;;;;;;5032985;28;20915;-66
2023/05/14 06:41:16;;;;;;;6.50;5.88;;;16.30;74.40;;;;;;5033361;28;20414;-60
2023/05/14 06:43:43;;;;;;;6.80;6.15;;;16.40;74.10;;;;;;5032912;28;20805;-60
2023/05/14 06:46:12;;;;;;;6.47;5.88;;;16.40;73.70;;;;;;5033249;28;20602;-61
2023/05/14 06:48:38;;;;;;;6.07;5.47;;;16.50;73.60;;;;;;5032867;28;20494;-61
2023/05/14 06:51:05;;;;;;;6.50;5.45;;;16.60;73.50;;;;;;5033650;28;20431;-61
2023/05/14 06:53:32;;;;;;;6.32;5.70;;;16.70;73.40;;;;;;5033777;28;20419;-61
2023/05/14 06:55:58;;;;;;;6.10;5.50;;;16.80;72.20;;;;;;5032822;28;20793;-62
2023/05/14 06:58:25;;;;;;;5.28;4.88;;;16.90;71.00;;;;;;5032717;28;20411;-62
2023/05/14 07:00:52;;;;;;;6.00;5.50;;;17.00;70.30;;;;;;5034630;28;20418;-61
2023/05/14 07:03:21;;;;;;;6.95;5.70;;;17.00;69.70;;;;;;5037766;28;20415;-62
2023/05/14 07:05:48;;;;;;;5.90;5.30;;;17.10;69.10;;;;;;5037844;28;20473;-60
2023/05/14 07:08:14;;;;;;;5.70;5.10;;;17.20;68.80;;;;;;5036936;28;20452;-62
2023/05/14 07:10:41;;;;;;;5.65;5.05;;;17.30;68.10;;;;;;5032710;28;20427;-61
2023/05/14 07:13:11;;;;;;;5.68;4.90;;;17.40;67.50;;;;;;5035542;28;20415;-63
2023/05/14 07:15:38;;;;;;;5.60;5.05;;;17.60;67.10;;;;;;5033970;28;20411;-61
2023/05/14 07:18:05;;;;;;;6.10;5.50;;;17.70;65.70;;;;;;5031753;28;20888;-62
2023/05/14 07:20:33;;;;;;;5.25;4.80;;;17.80;65.10;;;;;;5032148;28;20414;-62
2023/05/14 07:23:00;;;;;;;6.23;5.20;;;17.90;64.60;;;;;;5032180;28;20415;-63
2023/05/14 07:25:26;;;;;;;5.27;4.80;;;18.10;64.20;;;;;;5031790;28;20415;-62
2023/05/14 07:27:53;;;;;;;5.25;4.75;;;18.20;63.20;;;;;;5031896;28;20441;-62
2023/05/14 07:30:20;;;;;;;5.10;4.60;;;18.30;61.70;;;;;;5031535;28;20884;-63
2023/05/14 07:32:46;;;;;;;4.90;4.50;;;18.50;60.90;;;;;;5031378;28;20414;-61
2023/05/14 07:35:13;;;;;;;5.18;4.72;;;18.50;59.80;;;;;;5031511;28;20426;-62
2023/05/14 07:37:42;;;;;;;5.07;4.68;;;18.50;59.40;;;;;;5031927;28;20429;-61
2023/05/14 07:40:10;;;;;;;4.72;4.22;;;18.60;59.10;;;;;;5031893;28;20468;-62
2023/05/14 07:42:36;;;;;;;5.50;4.70;;;18.70;58.60;;;;;;5032142;28;20419;-62
2023/05/14 07:45:04;;;;;;;6.35;4.75;;;18.80;58.60;;;;;;5031175;28;20757;-63
2023/05/14 07:47:31;;;;;;;4.60;4.20;;;19.00;58.60;;;;;;5032137;28;20510;-63
2023/05/14 07:49:57;;;;;;;4.80;4.30;;;19.00;58.40;;;;;;5032085;28;20897;-62
2023/05/14 07:52:25;;;;;;;6.93;5.00;;;19.20;58.50;;;;;;5031640;28;20808;-62
2023/05/14 07:54:53;;;;;;;5.80;5.30;;;19.30;58.20;;;;;;5031787;28;20430;-60
2023/05/14 07:57:20;;;;;;;6.17;4.70;;;19.40;57.60;;;;;;5031393;28;20470;-60
2023/05/14 07:59:48;;;;;;;5.72;5.10;;;19.50;57.40;;;;;;5036965;28;20865;-61
2023/05/14 08:02:16;;;;;;;5.57;4.60;;;19.60;57.30;;;;;;5039978;28;20781;-61
2023/05/14 08:04:43;;;;;;;5.20;4.80;;;19.70;56.80;;;;;;5031157;28;20506;-62
2023/05/14 08:07:09;;;;;;;5.45;4.50;;;19.90;56.40;;;;;;5031193;28;20849;-61
2023/05/14 08:09:36;;;;;;;5.10;4.60;;;20.00;55.90;;;;;;5031070;28;20415;-63
2023/05/14 08:12:06;;;;;;;6.35;5.75;;;20.10;55.50;;;;;;5031244;28;20441;-63
2023/05/14 08:14:33;;;;;;;5.22;4.72;;;20.10;54.80;;;;;;5031560;28;20423;-62
2023/05/14 08:17:00;;;;;;;4.78;4.38;;;20.10;54.40;;;;;;5031767;28;20416;-64
2023/05/14 08:19:27;;;;;;;4.55;4.15;;;20.10;54.30;;;;;;5031044;28;20956;-63
2023/05/14 08:21:54;;;;;;;;;;;20.00;54.00;;;;;;5033442;28;20050;-62
2023/05/14 08:24:20;;;;;;;;;;;19.90;54.10;;;;;;5033010;28;19956;-63
2023/05/14 08:26:47;;;;;;;;;;;19.80;54.20;;;;;;5033347;28;19921;-63
2023/05/14 08:29:15;;;;;;;;;;;19.90;54.30;;;;;;5033318;28;19931;-63
2023/05/14 08:31:41;;;;;;;;;;;20.00;54.30;;;;;;5032902;28;19921;-63
2023/05/14 08:34:08;;;;;;;;;;;20.10;53.70;;;;;;5033471;28;20353;-62
2023/05/14 08:36:35;;;;;;;;;;;20.20;53.00;;;;;;5033071;28;19927;-63
2023/05/14 08:39:02;;;;;;;;;;;20.20;52.70;;;;;;5033030;28;19921;-64
2023/05/14 08:41:28;;;;;;;;;;;20.30;52.50;;;;;;5033159;28;19967;-62
2023/05/14 08:44:01;;;;;;;;;;;20.50;52.40;;;;;;5036885;28;19920;-63
2023/05/14 08:46:30;;;;;;;;;;;20.70;52.00;;;;;;5044701;28;19909;-63
2023/05/14 08:49:01;;;;;;;;;;;20.80;51.20;;;;;;5033676;28;19921;-63
2023/05/14 08:51:28;;;;;;;;;;;20.80;51.20;;;;;;5033626;28;19964;-61
2023/05/14 08:53:55;;;;;;;;;;;20.90;51.00;;;;;;5033304;28;19921;-61
2023/05/14 08:56:22;;;;;;;;;;;21.10;50.80;;;;;;5033638;28;20283;-61
2023/05/14 08:58:49;;;;;;;;;;;21.30;50.50;;;;;;5037871;28;19944;-61
2023/05/14 09:01:16;;;;;;;;;;;21.50;50.20;;;;;;5037391;28;20295;-61
2023/05/14 09:03:44;;;;;;;;;;;21.60;49.70;;;;;;5037209;28;20401;-61
2023/05/14 09:06:11;;;;;;;;;;;21.70;49.30;;;;;;5037316;28;19920;-60
2023/05/14 09:11:18;;;;;;;;;;;21.90;48.60;;;;;;5034712;28;19928;-61
2023/05/14 09:13:44;;;;;;;;;;;21.90;47.90;;;;;;5036896;28;19936;-61
2023/05/14 09:16:11;;;;;;;;;;;21.90;47.60;;;;;;5036552;28;20368;-61
2023/05/14 09:18:38;;;;;;;;;;;21.90;47.20;;;;;;5036732;28;19921;-61
2023/05/14 09:21:08;;;;;;;;;;;21.90;46.90;;;;;;5036446;28;19948;-61
2023/05/14 09:23:34;;;;;;;;;;;22.00;46.80;;;;;;5036667;28;19921;-61
2023/05/14 09:26:03;;;;;;;;;;;22.10;46.50;;;;;;5036332;28;19927;-62
2023/05/14 09:28:30;;;;;;;;;;;22.20;46.20;;;;;;5036525;28;20395;-62
2023/05/14 09:30:57;;;;;;;;;;;22.40;46.20;;;;;;5036256;28;19921;-61
2023/05/14 09:33:27;;;;;;;;;;;22.40;46.20;;;;;;5036038;28;20016;-62
2023/05/14 09:35:55;;;;;;;;;;;22.40;46.10;;;;;;5036137;28;19928;-61
2023/05/14 09:38:27;;;;;;;;;;;22.50;46.20;;;;;;5036128;28;19928;-62
2023/05/14 09:40:54;;;;;;;;;;;22.60;46.00;;;;;;5036387;28;19927;-61
2023/05/14 09:43:20;;;;;;;;;;;22.80;45.60;;;;;;5035053;28;20276;-62
2023/05/14 09:45:47;;;;;;;;;;;22.90;45.40;;;;;;5036014;28;19928;-61
2023/05/14 09:48:16;;;;;;;;;;;23.00;45.00;;;;;;5036632;28;19921;-63
2023/05/14 09:50:43;;;;;;;;;;;22.90;45.00;;;;;;5035834;28;20383;-62
2023/05/14 09:53:10;;;;;;;;;;;22.90;44.80;;;;;;5035738;28;19996;-62
2023/05/14 09:55:38;;;;;;;;;;;22.90;44.30;;;;;;5035317;28;20383;-62
2023/05/14 09:58:07;;;;;;;;;;;22.90;43.40;;;;;;5036127;28;19927;-62
2023/05/14 10:00:34;;;;;;;;;;;23.00;42.90;;;;;;5036017;28;19940;-61
2023/05/14 10:03:04;;;;;;;;;;;23.10;42.40;;;;;;5035527;28;20368;-61
2023/05/14 10:05:32;;;;;;;;;;;23.10;41.70;;;;;;5035372;28;19967;-60
2023/05/14 10:08:00;;;;;;;;;;;23.10;41.50;;;;;;5034873;28;20470;-62
2023/05/14 10:10:28;;;;;;;3.73;3.43;;;23.10;42.00;;;;;;5035394;28;20208;-62
2023/05/14 10:13:04;;;;;;;4.00;3.40;;;23.00;41.30;;;;;;5034455;28;20474;-64
2023/05/14 10:15:36;;;;;;;3.90;3.50;;;23.00;41.10;;;;;;5034424;28;20492;-62
2023/05/14 10:18:09;;;;;;;4.10;3.50;;;23.20;41.00;;;;;;5033548;28;20838;-61
2023/05/14 10:20:37;;;;;;;4.20;3.45;;;23.30;40.50;;;;;;5034104;28;20411;-61
2023/05/14 10:23:06;;;;;;;4.97;3.53;;;23.30;39.60;;;;;;5034128;28;20423;-61
2023/05/14 10:25:33;;;;;;;3.97;3.58;;;23.20;40.00;;;;;;5034598;28;20821;-62
2023/05/14 10:28:03;;;;;;;4.80;3.80;;;23.20;40.40;;;;;;5034325;28;20415;-62
2023/05/14 10:30:29;;;;;;;4.87;3.87;;;23.30;40.20;;;;;;5033276;28;20569;-62
2023/05/14 10:33:07;;;;;;;4.43;4.03;;;23.60;40.00;;;;;;5033614;28;20481;-62
2023/05/14 10:35:59;;;;;;;5.47;4.43;;;23.90;39.50;;;;;;5033426;28;20768;-62
2023/05/14 10:38:27;;;;;;;5.20;3.90;;;23.90;38.40;;;;;;5033477;28;20900;-62
2023/05/14 10:41:01;;;;;;;3.80;3.50;;;23.90;39.10;;;;;;5034551;28;20415;-61
2023/05/14 10:43:30;;;;;;;4.72;4.28;;;23.90;38.90;;;;;;5034273;28;20788;-63
2023/05/14 10:45:58;;;;;;;4.57;3.90;;;24.00;38.70;;;;;;5036742;28;20244;-63
2023/05/14 10:48:25;;;;;;;4.00;3.70;;;23.90;38.50;;;;;;5036061;28;20425;-64
2023/05/14 10:50:53;;;;;;;4.20;3.80;;;24.00;38.20;;;;;;5037990;28;20419;-64
2023/05/14 10:53:21;;;;;;;4.82;4.40;;;24.10;38.30;;;;;;5041025;28;20427;-63
2023/05/14 10:55:47;;;;;;;6.00;4.53;;;24.20;37.50;;;;;;5039934;28;20673;-63
2023/05/14 10:58:15;;;;;;;4.73;3.90;;;24.10;37.40;;;;;;5038202;28;20922;-64
2023/05/14 11:00:47;;;;;;;5.93;3.60;;;23.90;37.40;;;;;;5037491;28;20451;-63
2023/05/14 11:03:15;;;;;;;6.63;3.77;;;23.90;37.80;;;;;;5034202;28;20433;-62
2023/05/14 11:05:42;;;;;;;4.57;4.03;;;24.10;38.00;;;;;;5033127;28;20421;-63
2023/05/14 11:08:09;;;;;;;4.70;3.80;;;24.40;36.80;;;;;;5033299;28;20901;-63
2023/05/14 11:10:37;;;;;;;4.00;3.60;;;24.50;36.70;;;;;;5033561;28;20419;-62
2023/05/14 11:13:04;;;;;;;4.18;3.70;;;24.70;36.50;;;;;;5032656;28;20458;-64
2023/05/14 11:15:31;;;;;;;4.65;4.00;;;24.90;36.20;;;;;;5032276;28;20422;-62
2023/05/14 11:17:59;;;;;;;4.38;3.97;;;24.90;35.60;;;;;;5032553;28;20425;-62
2023/05/14 11:20:26;;;;;;;4.43;4.03;;;24.90;35.50;;;;;;5032225;28;20422;-62
2023/05/14 11:22:54;;;;;;;4.57;3.70;;;25.00;36.20;;;;;;5032556;28;20422;-65
2023/05/14 11:25:21;;;;;;;4.05;3.72;;;25.30;36.30;;;;;;5032655;28;20457;-62
2023/05/14 11:27:50;;;;;;;4.60;4.20;;;25.60;35.30;;;;;;5032304;28;20514;-68
2023/05/14 11:30:18;;;;;;;4.20;3.80;;;25.60;35.00;;;;;;5032435;28;20415;-66
2023/05/14 11:32:46;;;;;;;4.97;4.28;;;25.70;35.20;;;;;;5032263;28;20454;-64
2023/05/14 11:35:17;;;;;;;5.10;4.00;;;25.50;35.00;;;;;;5032043;28;20426;-64
2023/05/14 11:37:50;;;;;;;5.07;3.75;;;25.20;35.70;;;;;;5032449;28;20897;-62
2023/05/14 11:40:17;;;;;;;4.47;4.07;;;25.10;36.30;;;;;;5032440;28;20828;-64
2023/05/14 11:42:44;;;;;;;5.37;4.30;;;25.30;36.80;;;;;;5034808;28;20411;-63
2023/05/14 11:45:11;;;;;;;5.77;4.63;;;25.30;36.90;;;;;;5034721;28;20485;-63
2023/05/14 11:47:39;;;;;;;4.38;3.95;;;25.20;36.30;;;;;;5033379;28;20422;-61
2023/05/14 11:50:06;;;;;;;5.10;4.60;;;24.80;36.60;;;;;;5033860;28;20901;-64
2023/05/14 11:52:41;;;;;;;5.95;4.20;;;24.50;37.00;;;;;;5032977;28;20441;-63
2023/05/14 11:55:11;;;;;;;4.30;3.83;;;24.90;36.70;;;;;;5032489;28;20421;-63
2023/05/14 11:57:39;;;;;;;5.00;4.50;;;25.30;35.90;;;;;;5032799;28;20481;-61
2023/05/14 12:00:08;;;;;;;5.00;4.40;;;25.70;34.90;;;;;;5033160;28;20423;-64
2023/05/14 12:02:37;;;;;;;4.80;4.30;;;26.00;34.50;;;;;;5036085;28;20438;-63
2023/05/14 12:05:07;;;;;;;4.75;4.25;;;26.20;34.50;;;;;;5034175;28;20485;-63
2023/05/14 12:07:34;;;;;;;4.13;3.72;;;26.70;33.30;;;;;;5032207;28;20437;-63
2023/05/14 12:10:04;;;;;;;5.15;4.00;;;27.10;32.30;;;;;;5031811;28;20969;-64
2023/05/14 12:12:35;;;;;;;5.78;3.80;;;27.40;31.60;;;;;;5031355;28;20431;-62
2023/05/14 12:15:02;;;;;;;6.22;4.10;;;27.60;31.20;;;;;;5032126;28;20419;-63
2023/05/14 12:17:29;;;;;;;4.10;3.70;;;27.70;31.00;;;;;;5031919;28;20411;-63
2023/05/14 12:19:57;;;;;;;5.93;3.70;;;27.80;30.20;;;;;;5032953;28;20473;-63
2023/05/14 12:22:24;;;;;;;4.53;3.80;;;27.80;29.90;;;;;;5031896;28;20417;-62
2023/05/14 12:24:54;;;;;;;5.30;3.60;;;27.70;30.00;;;;;;5031974;28;20480;-63
2023/05/14 12:27:25;;;;;;;6.95;3.80;;;27.70;30.50;;;;;;5031632;28;20414;-65
2023/05/14 12:29:58;;;;;;;4.85;4.20;;;27.60;31.00;;;;;;5031654;28;20441;-65
2023/05/14 12:32:26;;;;;;;6.43;4.50;;;27.40;31.20;;;;;;5033561;28;20426;-65
2023/05/14 12:34:52;;;;;;;4.10;3.70;;;27.10;31.70;;;;;;5035334;28;20828;-64
2023/05/14 12:37:19;;;;;;;5.13;3.90;;;26.70;32.00;;;;;;5035102;28;20881;-63
2023/05/14 12:39:46;;;;;;;4.85;3.67;;;26.40;32.00;;;;;;5035016;28;20773;-66
2023/05/14 12:42:14;;;;;;;4.40;3.90;;;25.90;32.60;;;;;;5035164;28;20417;-67
2023/05/14 12:44:42;;;;;;;4.35;3.95;;;25.60;33.50;;;;;;5036776;28;20419;-66
2023/05/14 12:47:09;;;;;;;4.82;3.60;;;25.50;34.00;;;;;;5036610;28;20422;-64
2023/05/14 12:49:36;;;;;;;4.30;3.90;;;25.10;33.90;;;;;;5036613;28;20419;-64
2023/05/14 12:52:03;;;;;;;4.13;3.73;;;24.90;34.10;;;;;;5036636;28;20207;-64
2023/05/14 12:54:30;;;;;;;9.50;4.00;;;24.60;34.30;;;;;;5036634;28;20471;-63
2023/05/14 12:56:57;;;;;;;4.20;3.80;;;24.40;34.50;;;;;;5036370;28;20551;-62
2023/05/14 12:59:24;;;;;;;3.73;3.43;;;24.20;34.60;;;;;;5036241;28;20443;-63
2023/05/14 13:01:52;;;;;;;3.73;3.07;;;24.10;35.30;;;;;;5040856;28;20866;-63
2023/05/14 13:04:19;;;;;;;4.53;3.60;;;24.20;34.80;;;;;;5036750;28;20973;-64
2023/05/14 13:06:46;;;;;;;3.73;3.30;;;24.20;34.00;;;;;;5037312;28;20455;-65